Terminal Aerodrome Forecast
Issued by NWS Wilmington, OH

Current Version | Previous Version | Text Only | Print | Product List | Glossary Off
Versions: 1 2 3 4 5 6 7 8 9 10 11 12 13 14 15

010
FTUS41 KILN 112320
TAFDAY
TAF
KDAY 112320Z 1200/1224 VRB03KT P6SM FEW040 SCT120
     FM121300 24006KT P6SM BKN040
     FM121600 25012KT P6SM OVC025
     FM122100 28014G22KT P6SM VCSH OVC025=

USA.gov is the U.S. government's official web portal to all federal, state and local government web resources and services.